Terminal Aerodrome Forecast
Issued by NWS Amarillo, TX

Home | Current Version | Previous Version | Text Only | Print | Product List | Glossary On
Versions: 1 2 3 4 5 6 7 8 9 10 11 12 13
000
FTUS44 KAMA 061700
TAFDHT
TAF
KDHT 061720Z 0618/0718 02018G28KT P6SM SCT050 BKN200
      TEMPO 0621/0624 5SM TSRA BKN050CB
     FM070000 03015G25KT 5SM -TSRA SCT020 OVC050CB
     FM070900 02015KT 4SM -RA BR OVC020=

USA.gov is the U.S. government's official web portal to all federal, state and local government web resources and services.